sensor_id;sensor_type;location;lat;lon;timestamp;pressure;altitude;pressure_sealevel;temperature;humidity
7730;BME280;3908;52.310;7.230;2023-01-26T00:00:23;51336.75;;;-145.83;100.00
7730;BME280;3908;52.310;7.230;2023-01-26T00:03:12;51346.53;;;-145.83;100.00
7730;BME280;3908;52.310;7.230;2023-01-26T00:06:03;51366.09;;;-145.83;100.00
7730;BME280;3908;52.310;7.230;2023-01-26T00:08:54;51340.69;;;-145.83;100.00
7730;BME280;3908;52.310;7.230;2023-01-26T00:11:42;51358.28;;;-145.83;100.00
7730;BME280;3908;52.310;7.230;2023-01-26T00:14:29;51317.19;;;-145.83;100.00
7730;BME280;3908;52.310;7.230;2023-01-26T00:17:35;51334.81;;;-145.83;100.00
7730;BME280;3908;52.310;7.230;2023-01-26T00:20:23;51336.75;;;-145.83;100.00
7730;BME280;3908;52.310;7.230;2023-01-26T00:23:17;51334.81;;;-145.83;100.00
7730;BME280;3908;52.310;7.230;2023-01-26T00:26:05;51319.16;;;-145.83;100.00
7730;BME280;3908;52.310;7.230;2023-01-26T00:28:53;51364.16;;;-145.83;100.00
7730;BME280;3908;52.310;7.230;2023-01-26T00:31:44;51336.75;;;-145.83;100.00
7730;BME280;3908;52.310;7.230;2023-01-26T00:34:32;51295.69;;;-145.83;100.00
7730;BME280;3908;52.310;7.230;2023-01-26T00:37:20;51330.91;;;-145.83;100.00
7730;BME280;3908;52.310;7.230;2023-01-26T00:40:16;51366.09;;;-145.83;100.00
7730;BME280;3908;52.310;7.230;2023-01-26T00:43:03;51326.97;;;-145.83;100.00
7730;BME280;3908;52.310;7.230;2023-01-26T00:45:51;51352.41;;;-145.83;100.00
7730;BME280;3908;52.310;7.230;2023-01-26T00:48:38;51309.38;;;-145.83;100.00
7730;BME280;3908;52.310;7.230;2023-01-26T00:51:27;51348.50;;;-145.83;100.00
7730;BME280;3908;52.310;7.230;2023-01-26T00:54:14;51332.84;;;-145.83;100.00
7730;BME280;3908;52.310;7.230;2023-01-26T00:57:06;51344.59;;;-145.83;100.00
7730;BME280;3908;52.310;7.230;2023-01-26T00:59:53;51338.72;;;-145.83;100.00
7730;BME280;3908;52.310;7.230;2023-01-26T01:02:41;51350.47;;;-145.83;100.00
7730;BME280;3908;52.310;7.230;2023-01-26T01:05:30;51336.75;;;-145.83;100.00
7730;BME280;3908;52.310;7.230;2023-01-26T01:08:19;51346.53;;;-145.83;100.00
7730;BME280;3908;52.310;7.230;2023-01-26T01:11:08;51336.75;;;-145.83;100.00
7730;BME280;3908;52.310;7.230;2023-01-26T01:13:55;51348.50;;;-145.83;100.00
7730;BME280;3908;52.310;7.230;2023-01-26T01:16:43;51319.16;;;-145.83;100.00
7730;BME280;3908;52.310;7.230;2023-01-26T01:19:31;51328.94;;;-145.83;100.00
7730;BME280;3908;52.310;7.230;2023-01-26T01:22:18;51360.22;;;-145.83;100.00
7730;BME280;3908;52.310;7.230;2023-01-26T01:25:07;51323.06;;;-145.83;100.00
7730;BME280;3908;52.310;7.230;2023-01-26T01:27:57;51346.53;;;-145.83;100.00
7730;BME280;3908;52.310;7.230;2023-01-26T01:30:44;51326.97;;;-145.83;100.00
7730;BME280;3908;52.310;7.230;2023-01-26T01:33:32;51344.59;;;-145.83;100.00
7730;BME280;3908;52.310;7.230;2023-01-26T01:36:20;51350.47;;;-145.83;100.00
7730;BME280;3908;52.310;7.230;2023-01-26T01:39:07;51332.84;;;-145.83;100.00
7730;BME280;3908;52.310;7.230;2023-01-26T01:41:56;51325.03;;;-145.83;100.00
7730;BME280;3908;52.310;7.230;2023-01-26T01:44:45;51336.75;;;-145.83;100.00
7730;BME280;3908;52.310;7.230;2023-01-26T01:47:54;51350.47;;;-145.83;100.00
7730;BME280;3908;52.310;7.230;2023-01-26T01:50:43;51352.41;;;-145.83;100.00
7730;BME280;3908;52.310;7.230;2023-01-26T01:53:39;51373.94;;;-145.83;100.00
7730;BME280;3908;52.310;7.230;2023-01-26T01:56:31;51393.50;;;-145.83;100.00
7730;BME280;3908;52.310;7.230;2023-01-26T01:59:23;51371.97;;;-145.83;100.00
7730;BME280;3908;52.310;7.230;2023-01-26T02:02:11;51383.72;;;-145.83;100.00
7730;BME280;3908;52.310;7.230;2023-01-26T02:05:05;51328.94;;;-145.83;100.00
7730;BME280;3908;52.310;7.230;2023-01-26T02:07:55;51370.03;;;-145.83;100.00
7730;BME280;3908;52.310;7.230;2023-01-26T02:10:45;51346.53;;;-145.83;100.00
7730;BME280;3908;52.310;7.230;2023-01-26T02:13:36;51336.75;;;-145.83;100.00
7730;BME280;3908;52.310;7.230;2023-01-26T02:16:28;51368.06;;;-145.83;100.00
7730;BME280;3908;52.310;7.230;2023-01-26T02:19:21;51387.63;;;-145.83;100.00
7730;BME280;3908;52.310;7.230;2023-01-26T02:22:24;51328.94;;;-145.83;100.00
7730;BME280;3908;52.310;7.230;2023-01-26T02:25:19;51334.81;;;-145.83;100.00
7730;BME280;3908;52.310;7.230;2023-01-26T02:28:09;51342.63;;;-145.83;100.00
7730;BME280;3908;52.310;7.230;2023-01-26T02:30:57;51342.63;;;-145.83;100.00
7730;BME280;3908;52.310;7.230;2023-01-26T02:33:45;51354.38;;;-145.83;100.00
7730;BME280;3908;52.310;7.230;2023-01-26T02:36:33;51354.38;;;-145.83;100.00
7730;BME280;3908;52.310;7.230;2023-01-26T02:39:29;51358.28;;;-145.83;100.00
7730;BME280;3908;52.310;7.230;2023-01-26T02:42:22;51338.72;;;-145.83;100.00
7730;BME280;3908;52.310;7.230;2023-01-26T02:45:43;51358.28;;;-145.83;100.00
7730;BME280;3908;52.310;7.230;2023-01-26T02:48:31;51326.97;;;-145.83;100.00
7730;BME280;3908;52.310;7.230;2023-01-26T02:51:36;51340.69;;;-145.83;100.00
7730;BME280;3908;52.310;7.230;2023-01-26T02:54:26;51321.09;;;-145.83;100.00
7730;BME280;3908;52.310;7.230;2023-01-26T02:57:54;51360.22;;;-145.83;100.00
7730;BME280;3908;52.310;7.230;2023-01-26T03:00:46;51311.31;;;-145.83;100.00
7730;BME280;3908;52.310;7.230;2023-01-26T03:03:34;51342.63;;;-145.83;100.00
7730;BME280;3908;52.310;7.230;2023-01-26T03:06:30;51340.69;;;-145.83;100.00
7730;BME280;3908;52.310;7.230;2023-01-26T03:09:19;51340.69;;;-145.83;100.00
7730;BME280;3908;52.310;7.230;2023-01-26T03:12:08;51356.31;;;-145.83;100.00
7730;BME280;3908;52.310;7.230;2023-01-26T03:14:56;51328.94;;;-145.83;100.00
7730;BME280;3908;52.310;7.230;2023-01-26T03:18:02;51381.75;;;-145.83;100.00
7730;BME280;3908;52.310;7.230;2023-01-26T03:21:12;51344.59;;;-145.83;100.00
7730;BME280;3908;52.310;7.230;2023-01-26T03:24:16;51352.41;;;-145.83;100.00
7730;BME280;3908;52.310;7.230;2023-01-26T03:27:21;51385.66;;;-145.83;100.00
7730;BME280;3908;52.310;7.230;2023-01-26T03:30:15;51336.75;;;-145.83;100.00
7730;BME280;3908;52.310;7.230;2023-01-26T03:33:05;51328.94;;;-145.83;100.00
7730;BME280;3908;52.310;7.230;2023-01-26T03:35:53;51364.16;;;-145.83;100.00
7730;BME280;3908;52.310;7.230;2023-01-26T03:38:46;51350.47;;;-145.83;100.00
7730;BME280;3908;52.310;7.230;2023-01-26T03:41:33;51356.31;;;-145.83;100.00
7730;BME280;3908;52.310;7.230;2023-01-26T03:44:38;51350.47;;;-145.83;100.00
7730;BME280;3908;52.310;7.230;2023-01-26T03:47:42;51358.28;;;-145.83;100.00
7730;BME280;3908;52.310;7.230;2023-01-26T03:50:49;51342.63;;;-145.83;100.00
7730;BME280;3908;52.310;7.230;2023-01-26T03:53:53;51362.19;;;-145.83;100.00
7730;BME280;3908;52.310;7.230;2023-01-26T03:56:58;51323.06;;;-145.83;100.00
7730;BME280;3908;52.310;7.230;2023-01-26T03:59:45;51348.50;;;-145.83;100.00
7730;BME280;3908;52.310;7.230;2023-01-26T04:02:32;51332.84;;;-145.83;100.00
7730;BME280;3908;52.310;7.230;2023-01-26T04:05:36;51323.06;;;-145.83;100.00
7730;BME280;3908;52.310;7.230;2023-01-26T04:08:49;51342.63;;;-145.83;100.00
7730;BME280;3908;52.310;7.230;2023-01-26T04:11:39;51328.94;;;-145.83;100.00
7730;BME280;3908;52.310;7.230;2023-01-26T04:14:27;51381.75;;;-145.83;100.00
7730;BME280;3908;52.310;7.230;2023-01-26T04:17:33;51346.53;;;-145.83;100.00
7730;BME280;3908;52.310;7.230;2023-01-26T04:20:38;51336.75;;;-145.83;100.00
7730;BME280;3908;52.310;7.230;2023-01-26T04:23:55;51317.19;;;-145.83;100.00
7730;BME280;3908;52.310;7.230;2023-01-26T04:26:43;51340.69;;;-145.83;100.00
7730;BME280;3908;52.310;7.230;2023-01-26T04:29:30;51368.06;;;-145.83;100.00
7730;BME280;3908;52.310;7.230;2023-01-26T04:32:18;51332.84;;;-145.83;100.00
7730;BME280;3908;52.310;7.230;2023-01-26T04:35:09;51370.03;;;-145.83;100.00
7730;BME280;3908;52.310;7.230;2023-01-26T04:37:57;51338.72;;;-145.83;100.00
7730;BME280;3908;52.310;7.230;2023-01-26T04:40:52;51344.59;;;-145.83;100.00
7730;BME280;3908;52.310;7.230;2023-01-26T04:43:39;51348.50;;;-145.83;100.00
7730;BME280;3908;52.310;7.230;2023-01-26T04:46:27;51405.22;;;-145.83;100.00
7730;BME280;3908;52.310;7.230;2023-01-26T04:49:14;51301.53;;;-145.83;100.00
7730;BME280;3908;52.310;7.230;2023-01-26T04:52:02;51346.53;;;-145.83;100.00
7730;BME280;3908;52.310;7.230;2023-01-26T04:54:49;51375.88;;;-145.83;100.00
7730;BME280;3908;52.310;7.230;2023-01-26T04:57:38;51379.81;;;-145.83;100.00
7730;BME280;3908;52.310;7.230;2023-01-26T05:00:25;51332.84;;;-145.83;100.00
7730;BME280;3908;52.310;7.230;2023-01-26T05:03:14;51346.53;;;-145.83;100.00
7730;BME280;3908;52.310;7.230;2023-01-26T05:06:02;51346.53;;;-145.83;100.00
7730;BME280;3908;52.310;7.230;2023-01-26T05:08:49;51330.91;;;-145.83;100.00
7730;BME280;3908;52.310;7.230;2023-01-26T05:11:38;51356.31;;;-145.83;100.00
7730;BME280;3908;52.310;7.230;2023-01-26T05:14:37;51371.97;;;-145.83;100.00
7730;BME280;3908;52.310;7.230;2023-01-26T05:17:24;51348.50;;;-145.83;100.00
7730;BME280;3908;52.310;7.230;2023-01-26T05:20:12;51358.28;;;-145.83;100.00
7730;BME280;3908;52.310;7.230;2023-01-26T05:22:59;51338.72;;;-145.83;100.00
7730;BME280;3908;52.310;7.230;2023-01-26T05:25:46;51373.94;;;-145.83;100.00
7730;BME280;3908;52.310;7.230;2023-01-26T05:28:34;51358.28;;;-145.83;100.00
7730;BME280;3908;52.310;7.230;2023-01-26T05:31:22;51368.06;;;-145.83;100.00
7730;BME280;3908;52.310;7.230;2023-01-26T05:34:09;51377.84;;;-145.83;100.00
7730;BME280;3908;52.310;7.230;2023-01-26T05:36:56;51338.72;;;-145.83;100.00
7730;BME280;3908;52.310;7.230;2023-01-26T05:39:43;51354.38;;;-145.83;100.00
7730;BME280;3908;52.310;7.230;2023-01-26T05:42:31;51336.75;;;-145.83;100.00
7730;BME280;3908;52.310;7.230;2023-01-26T05:45:18;51325.03;;;-145.83;100.00
7730;BME280;3908;52.310;7.230;2023-01-26T05:48:07;51362.19;;;-145.83;100.00
7730;BME280;3908;52.310;7.230;2023-01-26T05:50:55;51373.94;;;-145.83;100.00
7730;BME280;3908;52.310;7.230;2023-01-26T05:53:56;51332.84;;;-145.83;100.00
7730;BME280;3908;52.310;7.230;2023-01-26T05:56:44;51356.31;;;-145.83;100.00
7730;BME280;3908;52.310;7.230;2023-01-26T05:59:31;51368.06;;;-145.83;100.00
7730;BME280;3908;52.310;7.230;2023-01-26T06:02:18;51338.72;;;-145.83;100.00
7730;BME280;3908;52.310;7.230;2023-01-26T06:05:09;51362.19;;;-145.83;100.00
7730;BME280;3908;52.310;7.230;2023-01-26T06:07:56;51358.28;;;-145.83;100.00
7730;BME280;3908;52.310;7.230;2023-01-26T06:10:43;51371.97;;;-145.83;100.00
7730;BME280;3908;52.310;7.230;2023-01-26T06:13:32;51370.03;;;-145.83;100.00
7730;BME280;3908;52.310;7.230;2023-01-26T06:16:19;51368.06;;;-145.83;100.00
7730;BME280;3908;52.310;7.230;2023-01-26T06:19:07;51391.53;;;-145.83;100.00
7730;BME280;3908;52.310;7.230;2023-01-26T06:25:43;51358.28;;;-145.83;100.00
7730;BME280;3908;52.310;7.230;2023-01-26T06:28:30;51368.06;;;-145.83;100.00
7730;BME280;3908;52.310;7.230;2023-01-26T06:31:18;51360.22;;;-145.83;100.00
7730;BME280;3908;52.310;7.230;2023-01-26T06:34:05;51370.03;;;-145.83;100.00
7730;BME280;3908;52.310;7.230;2023-01-26T06:36:52;51354.38;;;-145.83;100.00
7730;BME280;3908;52.310;7.230;2023-01-26T06:39:39;51344.59;;;-145.83;100.00
7730;BME280;3908;52.310;7.230;2023-01-26T06:42:28;51397.41;;;-145.83;100.00
7730;BME280;3908;52.310;7.230;2023-01-26T06:45:16;51336.75;;;-145.83;100.00
7730;BME280;3908;52.310;7.230;2023-01-26T06:48:05;51350.47;;;-145.83;100.00
7730;BME280;3908;52.310;7.230;2023-01-26T06:50:55;51340.69;;;-145.83;100.00
7730;BME280;3908;52.310;7.230;2023-01-26T06:53:46;51358.28;;;-145.83;100.00
7730;BME280;3908;52.310;7.230;2023-01-26T06:56:34;51348.50;;;-145.83;100.00
7730;BME280;3908;52.310;7.230;2023-01-26T06:59:22;51391.53;;;-145.83;100.00
7730;BME280;3908;52.310;7.230;2023-01-26T07:02:15;51360.22;;;-145.83;100.00
7730;BME280;3908;52.310;7.230;2023-01-26T07:05:03;51323.06;;;-145.83;100.00
7730;BME280;3908;52.310;7.230;2023-01-26T07:07:50;51370.03;;;-145.83;100.00
7730;BME280;3908;52.310;7.230;2023-01-26T07:10:38;51385.66;;;-145.83;100.00
7730;BME280;3908;52.310;7.230;2023-01-26T07:13:25;51328.94;;;-145.83;100.00
7730;BME280;3908;52.310;7.230;2023-01-26T07:16:15;51373.94;;;-145.83;100.00
7730;BME280;3908;52.310;7.230;2023-01-26T07:19:02;51336.75;;;-145.83;100.00
7730;BME280;3908;52.310;7.230;2023-01-26T07:21:49;51375.88;;;-145.83;100.00
7730;BME280;3908;52.310;7.230;2023-01-26T07:24:36;51354.38;;;-145.83;100.00
7730;BME280;3908;52.310;7.230;2023-01-26T07:27:23;51321.09;;;-145.83;100.00
7730;BME280;3908;52.310;7.230;2023-01-26T07:30:11;51377.84;;;-145.83;100.00
7730;BME280;3908;52.310;7.230;2023-01-26T07:33:00;51354.38;;;-145.83;100.00
7730;BME280;3908;52.310;7.230;2023-01-26T07:35:47;51321.09;;;-145.83;100.00
7730;BME280;3908;52.310;7.230;2023-01-26T07:38:38;51332.84;;;-145.83;100.00
7730;BME280;3908;52.310;7.230;2023-01-26T07:41:25;51342.63;;;-145.83;100.00
7730;BME280;3908;52.310;7.230;2023-01-26T07:44:12;51370.03;;;-145.83;100.00
7730;BME280;3908;52.310;7.230;2023-01-26T07:46:59;51366.09;;;-145.83;100.00
7730;BME280;3908;52.310;7.230;2023-01-26T07:49:49;51362.19;;;-145.83;100.00
7730;BME280;3908;52.310;7.230;2023-01-26T07:52:38;51315.25;;;-145.83;100.00
7730;BME280;3908;52.310;7.230;2023-01-26T07:55:26;51301.53;;;-145.83;100.00
7730;BME280;3908;52.310;7.230;2023-01-26T07:58:15;51342.63;;;-145.83;100.00
7730;BME280;3908;52.310;7.230;2023-01-26T08:01:09;51336.75;;;-145.83;100.00
7730;BME280;3908;52.310;7.230;2023-01-26T08:03:59;51389.59;;;-145.83;100.00
7730;BME280;3908;52.310;7.230;2023-01-26T08:06:49;51362.19;;;-145.83;100.00
7730;BME280;3908;52.310;7.230;2023-01-26T08:09:36;51328.94;;;-145.83;100.00
7730;BME280;3908;52.310;7.230;2023-01-26T08:12:24;51370.03;;;-145.83;100.00
7730;BME280;3908;52.310;7.230;2023-01-26T08:15:11;51338.72;;;-145.83;100.00
7730;BME280;3908;52.310;7.230;2023-01-26T08:17:58;51371.97;;;-145.83;100.00
7730;BME280;3908;52.310;7.230;2023-01-26T08:20:49;51332.84;;;-145.83;100.00
7730;BME280;3908;52.310;7.230;2023-01-26T08:23:38;51370.03;;;-145.83;100.00
7730;BME280;3908;52.310;7.230;2023-01-26T08:26:25;51330.91;;;-145.83;100.00
7730;BME280;3908;52.310;7.230;2023-01-26T08:29:12;51362.19;;;-145.83;100.00
7730;BME280;3908;52.310;7.230;2023-01-26T08:31:59;51366.09;;;-145.83;100.00
7730;BME280;3908;52.310;7.230;2023-01-26T08:34:47;51352.41;;;-145.83;100.00
7730;BME280;3908;52.310;7.230;2023-01-26T08:37:34;51334.81;;;-145.83;100.00
7730;BME280;3908;52.310;7.230;2023-01-26T08:40:22;51385.66;;;-145.83;100.00
7730;BME280;3908;52.310;7.230;2023-01-26T08:43:10;51362.19;;;-145.83;100.00
7730;BME280;3908;52.310;7.230;2023-01-26T08:45:57;51362.19;;;-145.83;100.00
7730;BME280;3908;52.310;7.230;2023-01-26T08:48:47;51348.50;;;-145.83;100.00
7730;BME280;3908;52.310;7.230;2023-01-26T08:51:35;51358.28;;;-145.83;100.00
7730;BME280;3908;52.310;7.230;2023-01-26T08:54:22;51383.72;;;-145.83;100.00
7730;BME280;3908;52.310;7.230;2023-01-26T08:57:11;51368.06;;;-145.83;100.00
7730;BME280;3908;52.310;7.230;2023-01-26T08:59:58;51358.28;;;-145.83;100.00
7730;BME280;3908;52.310;7.230;2023-01-26T09:02:45;51336.75;;;-145.83;100.00
7730;BME280;3908;52.310;7.230;2023-01-26T09:05:35;51350.47;;;-145.83;100.00
7730;BME280;3908;52.310;7.230;2023-01-26T09:08:23;51326.97;;;-145.83;100.00
7730;BME280;3908;52.310;7.230;2023-01-26T09:11:11;51387.63;;;-145.83;100.00
7730;BME280;3908;52.310;7.230;2023-01-26T09:14:00;51360.22;;;-145.83;100.00
7730;BME280;3908;52.310;7.230;2023-01-26T09:16:47;51364.16;;;-145.83;100.00
7730;BME280;3908;52.310;7.230;2023-01-26T09:19:34;51358.28;;;-145.83;100.00
7730;BME280;3908;52.310;7.230;2023-01-26T09:22:21;51360.22;;;-145.83;100.00
7730;BME280;3908;52.310;7.230;2023-01-26T09:25:09;51368.06;;;-145.83;100.00
7730;BME280;3908;52.310;7.230;2023-01-26T09:27:57;51352.41;;;-145.83;100.00
7730;BME280;3908;52.310;7.230;2023-01-26T09:30:45;51381.75;;;-145.83;100.00
7730;BME280;3908;52.310;7.230;2023-01-26T09:33:33;51350.47;;;-145.83;100.00
7730;BME280;3908;52.310;7.230;2023-01-26T09:36:22;51356.31;;;-145.83;100.00
7730;BME280;3908;52.310;7.230;2023-01-26T09:39:11;51385.66;;;-145.83;100.00
7730;BME280;3908;52.310;7.230;2023-01-26T09:42:09;51360.22;;;-145.83;100.00
7730;BME280;3908;52.310;7.230;2023-01-26T09:45:14;51375.88;;;-145.83;100.00
7730;BME280;3908;52.310;7.230;2023-01-26T09:48:13;51348.50;;;-145.83;100.00
7730;BME280;3908;52.310;7.230;2023-01-26T09:51:09;51340.69;;;-145.83;100.00
7730;BME280;3908;52.310;7.230;2023-01-26T09:54:02;51352.41;;;-145.83;100.00
7730;BME280;3908;52.310;7.230;2023-01-26T09:56:53;51383.72;;;-145.83;100.00
7730;BME280;3908;52.310;7.230;2023-01-26T09:59:47;51377.84;;;-145.83;100.00
7730;BME280;3908;52.310;7.230;2023-01-26T10:02:48;51360.22;;;-145.83;100.00
7730;BME280;3908;52.310;7.230;2023-01-26T10:05:43;51389.59;;;-145.83;100.00
7730;BME280;3908;52.310;7.230;2023-01-26T10:08:32;51389.59;;;-145.83;100.00
7730;BME280;3908;52.310;7.230;2023-01-26T10:11:23;51350.47;;;-145.83;100.00
7730;BME280;3908;52.310;7.230;2023-01-26T10:14:14;51383.72;;;-145.83;100.00
7730;BME280;3908;52.310;7.230;2023-01-26T10:17:10;51346.53;;;-145.83;100.00
7730;BME280;3908;52.310;7.230;2023-01-26T10:20:03;51422.84;;;-145.83;100.00
7730;BME280;3908;52.310;7.230;2023-01-26T10:22:54;51371.97;;;-145.83;100.00
7730;BME280;3908;52.310;7.230;2023-01-26T10:25:44;51395.44;;;-145.83;100.00
7730;BME280;3908;52.310;7.230;2023-01-26T10:28:32;51342.63;;;-145.83;100.00
7730;BME280;3908;52.310;7.230;2023-01-26T10:31:24;51360.22;;;-145.83;100.00
7730;BME280;3908;52.310;7.230;2023-01-26T10:34:15;51399.38;;;-145.83;100.00
7730;BME280;3908;52.310;7.230;2023-01-26T10:37:18;51364.16;;;-145.83;100.00
7730;BME280;3908;52.310;7.230;2023-01-26T10:40:08;51393.50;;;-145.83;100.00
7730;BME280;3908;52.310;7.230;2023-01-26T10:42:57;51370.03;;;-145.83;100.00
7730;BME280;3908;52.310;7.230;2023-01-26T10:45:53;51379.81;;;-145.83;100.00
7730;BME280;3908;52.310;7.230;2023-01-26T10:48:50;51354.38;;;-145.83;100.00
7730;BME280;3908;52.310;7.230;2023-01-26T10:51:39;51385.66;;;-145.83;100.00
7730;BME280;3908;52.310;7.230;2023-01-26T10:54:27;51377.84;;;-145.83;100.00
7730;BME280;3908;52.310;7.230;2023-01-26T10:57:24;51397.41;;;-145.83;100.00
7730;BME280;3908;52.310;7.230;2023-01-26T11:00:22;51383.72;;;-145.83;100.00
7730;BME280;3908;52.310;7.230;2023-01-26T11:03:16;51364.16;;;-145.83;100.00
7730;BME280;3908;52.310;7.230;2023-01-26T11:06:05;51358.28;;;-145.83;100.00
7730;BME280;3908;52.310;7.230;2023-01-26T11:08:52;51413.06;;;-145.83;100.00
7730;BME280;3908;52.310;7.230;2023-01-26T11:11:40;51395.44;;;-145.83;100.00
7730;BME280;3908;52.310;7.230;2023-01-26T11:14:30;51385.66;;;-145.83;100.00
7730;BME280;3908;52.310;7.230;2023-01-26T11:17:21;51395.44;;;-145.83;100.00
7730;BME280;3908;52.310;7.230;2023-01-26T11:20:32;51411.09;;;-145.83;100.00
7730;BME280;3908;52.310;7.230;2023-01-26T11:23:33;51407.19;;;-145.83;100.00
7730;BME280;3908;52.310;7.230;2023-01-26T11:26:53;51405.22;;;-145.83;100.00
7730;BME280;3908;52.310;7.230;2023-01-26T11:30:22;51389.59;;;-145.83;100.00
7730;BME280;3908;52.310;7.230;2023-01-26T11:33:16;51426.75;;;-145.83;100.00
7730;BME280;3908;52.310;7.230;2023-01-26T11:36:14;51395.44;;;-145.83;100.00
7730;BME280;3908;52.310;7.230;2023-01-26T11:39:15;51385.66;;;-145.83;100.00
7730;BME280;3908;52.310;7.230;2023-01-26T11:42:17;51362.19;;;-145.83;100.00
7730;BME280;3908;52.310;7.230;2023-01-26T11:45:24;51383.72;;;-145.83;100.00
7730;BME280;3908;52.310;7.230;2023-01-26T11:52:05;51385.66;;;-145.83;100.00
7730;BME280;3908;52.310;7.230;2023-01-26T11:55:23;51405.22;;;-145.83;100.00
7730;BME280;3908;52.310;7.230;2023-01-26T11:58:23;51371.97;;;-145.83;100.00
7730;BME280;3908;52.310;7.230;2023-01-26T12:01:19;51399.38;;;-145.83;100.00
7730;BME280;3908;52.310;7.230;2023-01-26T12:04:16;51399.38;;;-145.83;100.00
7730;BME280;3908;52.310;7.230;2023-01-26T12:07:09;51391.53;;;-145.83;100.00
7730;BME280;3908;52.310;7.230;2023-01-26T12:09:59;51399.38;;;-145.83;100.00
7730;BME280;3908;52.310;7.230;2023-01-26T12:12:52;51383.72;;;-145.83;100.00
7730;BME280;3908;52.310;7.230;2023-01-26T12:15:47;51446.31;;;-145.83;100.00
7730;BME280;3908;52.310;7.230;2023-01-26T12:18:43;51438.50;;;-145.83;100.00
7730;BME280;3908;52.310;7.230;2023-01-26T12:21:34;51420.88;;;-145.83;100.00
7730;BME280;3908;52.310;7.230;2023-01-26T12:24:32;51463.91;;;-145.83;100.00
7730;BME280;3908;52.310;7.230;2023-01-26T12:27:25;51432.63;;;-145.83;100.00
7730;BME280;3908;52.310;7.230;2023-01-26T12:30:33;51418.94;;;-145.83;100.00
7730;BME280;3908;52.310;7.230;2023-01-26T12:33:59;51438.50;;;-145.83;100.00
7730;BME280;3908;52.310;7.230;2023-01-26T12:37:17;51458.06;;;-145.83;100.00
7730;BME280;3908;52.310;7.230;2023-01-26T12:50:43;51436.53;;;-145.83;100.00
7730;BME280;3908;52.310;7.230;2023-01-26T12:53:37;51442.41;;;-145.83;100.00
7730;BME280;3908;52.310;7.230;2023-01-26T12:56:31;51405.22;;;-145.83;100.00
7730;BME280;3908;52.310;7.230;2023-01-26T12:59:23;51473.69;;;-145.83;100.00
7730;BME280;3908;52.310;7.230;2023-01-26T13:02:23;51465.88;;;-145.83;100.00
7730;BME280;3908;52.310;7.230;2023-01-26T13:05:23;51489.34;;;-145.83;100.00
7730;BME280;3908;52.310;7.230;2023-01-26T13:08:58;51446.31;;;-145.83;100.00
7730;BME280;3908;52.310;7.230;2023-01-26T13:11:47;51450.22;;;-145.83;100.00
7730;BME280;3908;52.310;7.230;2023-01-26T13:14:36;51420.88;;;-145.83;100.00
7730;BME280;3908;52.310;7.230;2023-01-26T13:17:46;51452.19;;;-145.83;100.00
7730;BME280;3908;52.310;7.230;2023-01-26T13:26:40;51444.34;;;-145.83;100.00
7730;BME280;3908;52.310;7.230;2023-01-26T13:29:32;51436.53;;;-145.83;100.00
7730;BME280;3908;52.310;7.230;2023-01-26T13:33:00;51452.19;;;-145.83;100.00
7730;BME280;3908;52.310;7.230;2023-01-26T13:35:50;51448.28;;;-145.83;100.00
7730;BME280;3908;52.310;7.230;2023-01-26T13:38:40;51450.22;;;-145.83;100.00
7730;BME280;3908;52.310;7.230;2023-01-26T13:41:29;51485.44;;;-145.83;100.00
7730;BME280;3908;52.310;7.230;2023-01-26T13:44:20;51456.09;;;-145.83;100.00
7730;BME280;3908;52.310;7.230;2023-01-26T13:47:12;51467.84;;;-145.83;100.00
7730;BME280;3908;52.310;7.230;2023-01-26T13:50:20;51434.56;;;-145.83;100.00
7730;BME280;3908;52.310;7.230;2023-01-26T13:53:32;51465.88;;;-145.83;100.00
7730;BME280;3908;52.310;7.230;2023-01-26T13:56:26;51458.06;;;-145.83;100.00
7730;BME280;3908;52.310;7.230;2023-01-26T13:59:17;51471.75;;;-145.83;100.00
7730;BME280;3908;52.310;7.230;2023-01-26T14:02:19;51452.19;;;-145.83;100.00
7730;BME280;3908;52.310;7.230;2023-01-26T14:05:20;51475.66;;;-145.83;100.00
7730;BME280;3908;52.310;7.230;2023-01-26T14:08:11;51454.13;;;-145.83;100.00
7730;BME280;3908;52.310;7.230;2023-01-26T14:11:01;51452.19;;;-145.83;100.00
7730;BME280;3908;52.310;7.230;2023-01-26T14:13:51;51460.00;;;-145.83;100.00
7730;BME280;3908;52.310;7.230;2023-01-26T14:16:42;51452.19;;;-145.83;100.00
7730;BME280;3908;52.310;7.230;2023-01-26T14:19:29;51452.19;;;-145.83;100.00
7730;BME280;3908;52.310;7.230;2023-01-26T14:22:16;51469.78;;;-145.83;100.00
7730;BME280;3908;52.310;7.230;2023-01-26T14:25:08;51473.69;;;-145.83;100.00
7730;BME280;3908;52.310;7.230;2023-01-26T14:27:56;51512.84;;;-145.83;100.00
7730;BME280;3908;52.310;7.230;2023-01-26T14:30:49;51458.06;;;-145.83;100.00
7730;BME280;3908;52.310;7.230;2023-01-26T14:33:38;51497.19;;;-145.83;100.00
7730;BME280;3908;52.310;7.230;2023-01-26T14:36:27;51434.56;;;-145.83;100.00
7730;BME280;3908;52.310;7.230;2023-01-26T14:39:18;51481.53;;;-145.83;100.00
7730;BME280;3908;52.310;7.230;2023-01-26T14:42:05;51458.06;;;-145.83;100.00
7730;BME280;3908;52.310;7.230;2023-01-26T14:44:52;51493.25;;;-145.83;100.00
7730;BME280;3908;52.310;7.230;2023-01-26T14:47:40;51436.53;;;-145.83;100.00
7730;BME280;3908;52.310;7.230;2023-01-26T14:50:29;51454.13;;;-145.83;100.00
7730;BME280;3908;52.310;7.230;2023-01-26T14:53:19;51487.41;;;-145.83;100.00
7730;BME280;3908;52.310;7.230;2023-01-26T14:56:17;51505.00;;;-145.83;100.00
7730;BME280;3908;52.310;7.230;2023-01-26T14:59:05;51456.09;;;-145.83;100.00
7730;BME280;3908;52.310;7.230;2023-01-26T15:02:02;51418.94;;;-145.83;100.00
7730;BME280;3908;52.310;7.230;2023-01-26T15:04:53;51452.19;;;-145.83;100.00
7730;BME280;3908;52.310;7.230;2023-01-26T15:07:45;51442.41;;;-145.83;100.00
7730;BME280;3908;52.310;7.230;2023-01-26T15:10:36;51428.72;;;-145.83;100.00
7730;BME280;3908;52.310;7.230;2023-01-26T15:13:29;51422.84;;;-145.83;100.00
7730;BME280;3908;52.310;7.230;2023-01-26T15:16:18;51444.34;;;-145.83;100.00
7730;BME280;3908;52.310;7.230;2023-01-26T15:19:06;51448.28;;;-145.83;100.00
7730;BME280;3908;52.310;7.230;2023-01-26T15:21:53;51448.28;;;-145.83;100.00
7730;BME280;3908;52.310;7.230;2023-01-26T15:24:44;51461.97;;;-145.83;100.00